Latest Weather Observations for Croker Island Airport

IDD60801

Issued at 10:35 pm CST Thursday 31 July 2014 (issued every 30 minutes, with the page automatically refreshed every 10 minutes)

About weather observations | Map of weather stations | Latest weather observations for NT | Other Formats
Station Details ID: 014308 Name: CROKER ISLAND AIRPORT Lat: -11.16 Lon: 132.48 Height: 9.2 m
Data from the previous 72 hours. | See also: Recent months for locations in Northern Territory
Date/Time
CST
Temp
°C
App
Temp
°C
Dew
Point
Rel
Hum
%
Delta-T
°C
Wind Press
QNH
hPa
Press
MSL
hPa
Rain
since 9 am
mm
Dir
 
Spd
km/h
Gust
km/h
Spd
kts
Gust
kts
31/10:30pm 23.9 27.3 22.0 89 1.3 ENE 7 13 4 7 1013.8 1013.7 0.0
31/10:00pm 24.0 27.0 21.9 88 1.4 ENE 9 15 5 8 1013.7 - 0.0
31/09:30pm 24.0 26.9 21.7 87 1.5 ENE 9 15 5 8 1013.6 1013.5 0.0
31/09:00pm 23.9 26.7 21.6 87 1.5 ENE 9 15 5 8 1013.4 1013.3 0.0
31/08:30pm 24.0 26.4 21.5 86 1.7 ENE 11 15 6 8 1013.3 1013.2 0.0
31/08:00pm 24.0 26.1 20.9 83 2.0 ENE 11 17 6 9 1012.9 - 0.0
31/07:30pm 24.2 26.0 20.3 79 2.5 ENE 11 15 6 8 1012.5 1012.4 0.0
31/07:00pm 24.6 26.9 20.7 79 2.6 ENE 9 13 5 7 1012.4 - 0.0
31/06:30pm 25.2 26.8 20.7 76 2.9 ENE 13 19 7 10 1012.3 1012.2 0.0
31/06:00pm 26.2 26.7 20.1 69 4.0 E 17 22 9 12 1012.2 1012.1 0.0
31/05:30pm 27.0 27.3 19.6 64 4.8 ENE 17 22 9 12 1012.2 1012.1 0.0
31/05:00pm 28.1 29.5 20.4 63 5.1 E 13 20 7 11 1012.1 - 0.0
31/04:30pm 28.4 29.5 20.4 62 5.3 E 15 20 8 11 1012.0 1011.9 0.0
31/04:00pm 28.6 29.8 20.6 62 5.3 E 15 22 8 12 1012.0 - 0.0
31/03:30pm 28.9 29.8 20.9 62 5.3 E 17 24 9 13 1012.0 1011.9 0.0
31/03:00pm 28.2 28.9 20.5 63 5.1 ESE 17 22 9 12 1012.3 1012.2 0.0
31/02:30pm 29.1 29.4 20.5 59 5.7 E 19 26 10 14 1012.6 1012.5 0.0
31/02:00pm 29.8 31.0 20.6 57 6.1 E 15 24 8 13 1013.0 - 0.0
31/01:30pm 29.9 30.9 20.2 56 6.4 E 15 20 8 11 1013.4 1013.3 0.0
31/01:00pm 30.0 30.3 19.7 54 6.7 ENE 17 26 9 14 1013.8 - 0.0
31/12:30pm 29.9 29.2 18.7 51 7.2 ENE 20 30 11 16 1014.1 1014.0 0.0
31/12:00pm 30.0 29.8 19.4 53 6.9 E 19 28 10 15 1014.6 1014.5 0.0
31/11:30am 29.3 29.3 19.0 53 6.7 ENE 17 28 9 15 1014.9 1014.8 0.0
31/11:00am 28.8 28.6 19.7 58 5.9 ENE 20 28 11 15 1015.2 - 0.0
31/10:30am 28.3 28.7 19.8 60 5.5 E 17 26 9 14 1015.5 1015.4 0.0
31/10:00am 27.5 27.7 20.1 64 4.8 E 19 30 10 16 1015.5 - 0.0
31/09:30am 27.2 28.1 20.8 68 4.2 ENE 17 26 9 14 1015.6 1015.5 0.0
31/09:00am 26.1 27.1 21.1 74 3.3 E 17 24 9 13 1015.5 1015.4 0.0
31/08:30am 25.9 26.8 20.9 74 3.3 E 17 24 9 13 1015.5 1015.4 0.0
31/08:00am 24.9 27.8 21.8 83 2.1 E 9 15 5 8 1015.3 - 0.0
31/07:30am 23.9 25.7 21.2 85 1.8 E 13 19 7 10 1015.0 1014.9 0.0
31/07:00am 23.7 25.5 21.2 86 1.6 E 13 20 7 11 1014.7 - 0.0
31/06:30am 23.9 26.1 21.2 85 1.8 E 11 15 6 8 1014.5 1014.4 0.0
31/06:00am 24.2 25.7 21.3 84 1.9 E 15 20 8 11 1014.3 1014.2 0.0
31/05:30am 24.1 25.2 21.2 84 1.9 E 17 24 9 13 1014.2 1014.1 0.0
31/05:00am 24.0 25.5 21.3 85 1.8 E 15 20 8 11 1014.2 - 0.0
31/04:30am 24.1 25.1 21.0 83 2.0 E 17 26 9 14 1014.2 1014.1 0.0
31/04:00am 24.0 25.4 21.1 84 1.9 E 15 22 8 12 1014.3 - 0.0
31/03:30am 24.0 25.5 21.3 85 1.8 E 15 22 8 12 1014.4 1014.3 0.0
31/03:00am 24.0 26.0 21.5 86 1.7 E 13 19 7 10 1014.3 1014.2 0.0
31/02:30am 23.9 26.3 21.6 87 1.5 ENE 11 19 6 10 1014.4 1014.3 0.0
31/02:00am 23.9 26.1 21.2 85 1.8 ENE 11 15 6 8 1014.4 - 0.0
31/01:30am 24.0 26.3 21.3 85 1.8 ENE 11 17 6 9 1014.4 1014.3 0.0
31/01:00am 24.2 26.4 21.1 83 2.0 ENE 11 19 6 10 1014.5 - 0.0
31/12:30am 24.3 25.8 21.2 83 2.0 ENE 15 24 8 13 1014.4 1014.3 0.0
31/12:00am 24.2 26.5 21.3 84 1.9 E 11 17 6 9 1014.5 1014.4 0.0
 
Date/Time
CST
Temp
°C
App
Temp
°C
Dew
Point
Rel
Hum
%
Delta-T
°C
Wind Press
QNH
hPa
Press
MSL
hPa
Rain
since 9 am
mm
Dir
 
Spd
km/h
Gust
km/h
Spd
kts
Gust
kts
30/11:30pm 24.2 26.1 21.3 84 1.9 ENE 13 17 7 9 1014.6 1014.5 0.0
30/11:00pm 24.4 26.3 21.3 83 2.0 ENE 13 17 7 9 1014.7 - 0.0
30/10:30pm 24.5 26.9 21.6 84 1.9 ENE 11 17 6 9 1014.9 1014.8 0.0
30/10:00pm 24.6 26.6 21.5 83 2.1 ENE 13 19 7 10 1014.9 - 0.0
30/09:30pm 24.7 26.6 21.4 82 2.2 ENE 13 20 7 11 1015.0 1014.9 0.0
30/09:00pm 24.8 26.6 21.1 80 2.4 ENE 13 20 7 11 1014.8 1014.7 0.0
30/08:30pm 24.7 26.3 20.8 79 2.6 ENE 13 20 7 11 1014.7 1014.6 0.0
30/08:00pm 24.5 26.4 20.6 79 2.5 ENE 11 19 6 10 1014.1 - 0.0
30/07:30pm 24.6 26.5 20.5 78 2.7 ENE 11 15 6 8 1013.7 1013.6 0.0
30/07:00pm 24.8 26.6 20.3 76 2.9 ENE 11 19 6 10 1013.4 - 0.0
30/06:30pm 25.3 26.2 20.1 73 3.4 E 15 24 8 13 1013.1 1013.0 0.0
30/06:00pm 26.1 26.1 19.7 68 4.1 E 19 30 10 16 1013.0 1012.9 0.0
30/05:30pm 26.9 26.8 20.0 66 4.5 E 20 30 11 16 1012.9 1012.8 0.0
30/05:00pm 27.7 27.7 19.8 62 5.1 E 19 28 10 15 1012.9 - 0.0
30/04:30pm 27.9 27.0 19.1 58 5.7 E 22 32 12 17 1012.7 1012.6 0.0
30/04:00pm 28.9 28.1 19.2 55 6.3 ESE 22 37 12 20 1012.7 - 0.0
30/03:30pm 29.1 28.1 18.8 53 6.6 ESE 22 37 12 20 1012.8 1012.7 0.0
30/03:00pm 29.4 27.4 18.2 51 7.2 E 26 39 14 21 1012.9 1012.8 0.0
30/02:30pm 29.1 27.3 17.9 50 7.1 E 24 37 13 20 1013.2 1013.1 0.0
30/02:00pm 29.7 28.5 18.5 51 7.2 E 22 35 12 19 1013.5 - 0.0
30/01:30pm 29.1 27.3 17.9 50 7.1 E 24 33 13 18 1013.8 1013.7 0.0
30/01:00pm 29.2 27.8 18.9 53 6.7 E 24 33 13 18 1014.3 - 0.0
30/12:30pm 28.8 27.9 19.1 55 6.3 E 22 33 12 18 1014.6 1014.5 0.0
30/12:00pm 28.6 29.1 20.1 60 5.6 ESE 17 30 9 16 1014.9 1014.8 0.0
30/11:30am 28.9 29.6 20.4 60 5.6 E 17 28 9 15 1015.1 1015.0 0.0
30/11:00am 28.4 29.1 20.4 62 5.3 E 17 24 9 13 1015.5 - 0.0
30/10:30am 27.9 28.5 20.2 63 5.0 E 17 28 9 15 1015.7 1015.6 0.0
30/10:00am 27.8 28.2 19.8 61 5.2 E 17 26 9 14 1015.9 - 0.0
30/09:30am 27.2 27.0 19.3 62 5.1 ESE 19 30 10 16 1016.1 1016.0 0.0
30/09:00am 26.6 27.2 19.5 65 4.6 ESE 15 20 8 11 1016.0 1015.9 0.0
30/08:30am 25.9 27.8 20.5 72 3.5 ESE 11 17 6 9 1015.8 1015.7 0.0
30/08:00am 24.2 26.8 20.1 78 2.7 E 6 9 3 5 1015.7 - 0.0
30/07:30am 22.1 24.4 19.5 85 1.7 E 6 7 3 4 1015.3 1015.2 0.0
30/07:00am 21.9 24.0 19.3 85 1.7 E 7 11 4 6 1015.0 - 0.0
30/06:30am 22.3 24.2 19.7 85 1.7 E 9 13 5 7 1014.8 1014.7 0.0
30/06:00am 22.6 24.5 19.8 84 1.8 E 9 13 5 7 1014.6 1014.5 0.0
30/05:30am 22.8 24.6 19.6 82 2.0 E 9 15 5 8 1014.6 1014.5 0.0
30/05:00am 23.0 24.1 19.6 81 2.2 E 13 17 7 9 1014.5 - 0.0
30/04:30am 22.5 24.5 19.1 81 2.2 E 7 11 4 6 1014.4 1014.3 0.0
30/04:00am 23.2 24.6 19.6 80 2.3 E 11 15 6 8 1014.4 - 0.0
30/03:30am 23.5 25.5 20.8 85 1.8 E 11 15 6 8 1014.3 1014.2 0.0
30/03:00am 23.8 25.6 21.1 85 1.8 E 13 20 7 11 1014.3 1014.2 0.0
30/02:30am 23.9 25.7 21.2 85 1.8 E 13 19 7 10 1014.4 1014.3 0.0
30/02:00am 24.1 25.6 21.2 84 1.9 E 15 20 8 11 1014.6 - 0.0
30/01:30am 24.2 25.6 21.1 83 2.0 E 15 22 8 12 1014.6 1014.5 0.0
30/01:00am 24.3 25.8 21.2 83 2.0 E 15 22 8 12 1014.7 - 0.0
30/12:30am 24.5 25.7 21.4 83 2.0 E 17 24 9 13 1014.9 1014.8 0.0
30/12:00am 24.6 25.8 21.5 83 2.0 E 17 22 9 12 1015.1 1015.0 0.0
 
Date/Time
CST
Temp
°C
App
Temp
°C
Dew
Point
Rel
Hum
%
Delta-T
°C
Wind Press
QNH
hPa
Press
MSL
hPa
Rain
since 9 am
mm
Dir
 
Spd
km/h
Gust
km/h
Spd
kts
Gust
kts
29/11:30pm 24.6 25.8 21.5 83 2.0 E 17 26 9 14 1015.3 1015.2 0.0
29/11:00pm 24.6 26.6 21.5 83 2.1 E 13 19 7 10 1015.3 - 0.0
29/10:30pm 24.7 26.5 21.8 84 1.9 E 15 20 8 11 1015.4 1015.3 0.0
29/10:00pm 24.6 26.7 21.7 84 1.9 E 13 17 7 9 1015.3 - 0.0
29/09:30pm 24.7 26.7 21.6 83 2.1 E 13 19 7 10 1015.2 1015.1 0.0
29/09:00pm 24.8 26.0 21.5 82 2.2 E 17 24 9 13 1015.0 1014.9 0.0
29/08:30pm 24.8 25.9 21.3 81 2.3 E 17 24 9 13 1014.7 1014.6 0.0
29/08:00pm 24.9 26.5 21.4 81 2.3 E 15 22 8 12 1014.6 - 0.0
29/07:30pm 24.7 26.9 21.2 81 2.3 ENE 11 17 6 9 1014.3 1014.2 0.0
29/07:00pm 24.9 26.2 20.8 78 2.7 E 15 20 8 11 1014.1 - 0.0
29/06:30pm 25.3 26.8 20.5 75 3.1 E 13 20 7 11 1013.9 1013.8 0.0
29/06:00pm 26.0 26.3 20.3 71 3.7 E 19 28 10 15 1013.6 1013.5 0.0
29/05:30pm 26.6 26.3 20.4 69 4.1 E 22 35 12 19 1013.4 1013.3 0.0
29/05:00pm 27.0 25.8 20.1 66 4.5 E 26 37 14 20 1013.3 - 0.0
29/04:30pm 27.3 26.0 19.9 64 4.8 E 26 39 14 21 1013.1 1013.0 0.0
29/04:00pm 28.1 26.9 20.1 62 5.2 E 26 35 14 19 1013.1 - 0.0
29/03:30pm 28.8 28.2 20.5 61 5.5 E 24 41 13 22 1013.1 1013.0 0.0
29/03:00pm 29.4 28.7 20.3 58 6.0 E 24 35 13 19 1013.2 1013.1 0.0
29/02:30pm 28.9 28.0 19.8 58 6.0 E 24 37 13 20 1013.4 1013.3 0.0
29/02:00pm 28.7 27.3 19.6 58 5.9 ESE 26 41 14 22 1013.9 - 0.0
29/01:30pm 28.9 27.6 19.8 58 5.9 E 26 41 14 22 1014.2 1014.1 0.0
29/01:00pm 28.8 26.9 19.4 56 6.1 E 28 39 15 21 1014.5 - 0.0
29/12:30pm 28.9 27.8 19.5 57 6.1 E 24 35 13 19 1014.9 1014.8 0.0
29/12:00pm 28.6 28.0 19.8 59 5.7 E 22 35 12 19 1015.5 1015.4 0.0
29/11:30am 28.4 27.4 19.6 59 5.7 E 24 39 13 21 1015.9 1015.8 0.0
29/11:00am 27.7 27.4 19.5 61 5.3 ESE 20 35 11 19 1016.1 - 0.0
29/10:30am 27.3 26.9 20.1 64 4.7 ESE 22 33 12 18 1016.3 1016.2 0.0
29/10:00am 26.6 26.1 20.0 67 4.3 ESE 22 33 12 18 1016.3 - 0.0
29/09:30am 25.2 24.6 19.8 72 3.5 ESE 22 33 12 18 1016.4 1016.3 0.0
29/09:00am 25.4 25.4 19.8 71 3.6 ESE 19 28 10 15 1016.3 1016.2 0.0
29/08:30am 24.8 25.2 19.8 74 3.2 ESE 17 26 9 14 1016.1 1016.0 0.0
29/08:00am 24.4 24.9 20.1 77 2.8 ESE 17 28 9 15 1015.9 - 0.0
29/07:30am 23.3 24.4 19.7 80 2.3 ESE 13 20 7 11 1015.6 1015.5 0.0
29/07:00am 23.1 23.3 19.3 79 2.4 ESE 17 22 9 12 1015.5 - 0.0
29/06:30am 22.8 23.2 19.0 79 2.4 E 15 20 8 11 1015.5 1015.4 0.0
29/06:00am 22.9 23.7 19.1 79 2.4 ESE 13 19 7 10 1015.1 1015.0 0.0
29/05:30am 22.9 24.2 19.3 80 2.3 E 11 15 6 8 1015.0 1014.9 0.0
29/05:00am 23.2 24.5 19.2 78 2.5 ESE 11 17 6 9 1014.7 - 0.0
29/04:30am 23.5 24.5 19.4 78 2.6 E 13 19 7 10 1014.5 1014.4 0.0
29/04:00am 23.9 24.2 19.6 77 2.8 E 17 24 9 13 1014.3 - 0.0
29/03:30am 23.9 25.2 20.8 83 2.0 E 15 24 8 13 1014.3 1014.2 0.0
29/03:00am 24.1 25.0 20.8 82 2.2 E 17 26 9 14 1014.2 1014.1 0.0
29/02:30am 24.3 24.8 20.8 81 2.3 E 19 30 10 16 1014.4 1014.3 0.0
29/02:00am 24.3 25.6 20.8 81 2.3 E 15 24 8 13 1014.6 - 0.0
29/01:30am 24.3 25.2 20.8 81 2.3 E 17 26 9 14 1014.8 1014.7 0.0
29/01:00am 24.2 25.6 21.1 83 2.0 E 15 20 8 11 1014.7 - 0.0
29/12:30am 24.3 26.2 21.4 84 1.9 E 13 20 7 11 1014.7 1014.6 0.0
29/12:00am 24.4 26.6 21.1 82 2.2 E 11 17 6 9 1014.8 1014.7 0.0
 
Date/Time
CST
Temp
°C
App
Temp
°C
Dew
Point
Rel
Hum
%
Delta-T
°C
Wind Press
QNH
hPa
Press
MSL
hPa
Rain
since 9 am
mm
Dir
 
Spd
km/h
Gust
km/h
Spd
kts
Gust
kts
28/11:30pm 24.5 26.1 20.8 80 2.4 E 13 22 7 12 1014.8 1014.7 0.0
28/11:00pm 24.7 26.3 21.4 82 2.2 E 15 22 8 12 1015.0 - 0.0

Other Formats:

Comma delimited format used in spreadsheet applications
http://www.bom.gov.au/fwo/IDD60801/IDD60801.94108.axf

JavaScript Object Notation format (JSON) in row-major order
http://www.bom.gov.au/fwo/IDD60801/IDD60801.94108.json